sensor_id;sensor_type;location;lat;lon;timestamp;P1;durP1;ratioP1;P2;durP2;ratioP2
4650;SDS011;2338;49.602;8.722;2022-08-01T00:00:04;4.07;;;2.50;;
4650;SDS011;2338;49.602;8.722;2022-08-01T00:02:53;3.47;;;2.33;;
4650;SDS011;2338;49.602;8.722;2022-08-01T00:05:39;2.73;;;2.23;;
4650;SDS011;2338;49.602;8.722;2022-08-01T00:08:27;4.27;;;2.50;;
4650;SDS011;2338;49.602;8.722;2022-08-01T00:11:12;4.00;;;2.97;;
4650;SDS011;2338;49.602;8.722;2022-08-01T00:13:58;3.57;;;2.70;;
4650;SDS011;2338;49.602;8.722;2022-08-01T00:16:44;3.13;;;2.30;;
4650;SDS011;2338;49.602;8.722;2022-08-01T00:19:32;5.80;;;2.37;;
4650;SDS011;2338;49.602;8.722;2022-08-01T00:22:18;4.33;;;2.77;;
4650;SDS011;2338;49.602;8.722;2022-08-01T00:25:04;5.60;;;3.47;;
4650;SDS011;2338;49.602;8.722;2022-08-01T00:27:51;3.83;;;2.13;;
4650;SDS011;2338;49.602;8.722;2022-08-01T00:30:37;4.40;;;2.70;;
4650;SDS011;2338;49.602;8.722;2022-08-01T00:33:23;8.03;;;2.40;;
4650;SDS011;2338;49.602;8.722;2022-08-01T00:36:10;4.40;;;2.87;;
4650;SDS011;2338;49.602;8.722;2022-08-01T00:38:55;3.00;;;2.50;;
4650;SDS011;2338;49.602;8.722;2022-08-01T00:41:41;4.30;;;3.13;;
4650;SDS011;2338;49.602;8.722;2022-08-01T00:44:27;4.80;;;2.90;;
4650;SDS011;2338;49.602;8.722;2022-08-01T00:47:12;3.10;;;2.30;;
4650;SDS011;2338;49.602;8.722;2022-08-01T00:49:58;4.20;;;2.80;;
4650;SDS011;2338;49.602;8.722;2022-08-01T00:52:45;3.93;;;2.97;;
4650;SDS011;2338;49.602;8.722;2022-08-01T00:55:31;3.50;;;2.60;;
4650;SDS011;2338;49.602;8.722;2022-08-01T00:58:17;4.37;;;2.80;;
4650;SDS011;2338;49.602;8.722;2022-08-01T01:01:03;5.67;;;2.93;;
4650;SDS011;2338;49.602;8.722;2022-08-01T01:03:48;6.83;;;2.90;;
4650;SDS011;2338;49.602;8.722;2022-08-01T01:06:41;3.80;;;2.63;;
4650;SDS011;2338;49.602;8.722;2022-08-01T01:09:36;3.70;;;3.03;;
4650;SDS011;2338;49.602;8.722;2022-08-01T01:12:27;4.10;;;2.87;;
4650;SDS011;2338;49.602;8.722;2022-08-01T01:15:20;5.20;;;3.00;;
4650;SDS011;2338;49.602;8.722;2022-08-01T01:18:11;4.27;;;2.60;;
4650;SDS011;2338;49.602;8.722;2022-08-01T01:21:03;5.63;;;2.97;;
4650;SDS011;2338;49.602;8.722;2022-08-01T01:24:01;4.50;;;2.97;;
4650;SDS011;2338;49.602;8.722;2022-08-01T01:26:57;3.57;;;3.20;;
4650;SDS011;2338;49.602;8.722;2022-08-01T01:29:50;3.63;;;2.87;;
4650;SDS011;2338;49.602;8.722;2022-08-01T01:32:38;3.73;;;2.50;;
4650;SDS011;2338;49.602;8.722;2022-08-01T01:35:28;3.63;;;2.70;;
4650;SDS011;2338;49.602;8.722;2022-08-01T01:38:17;10.50;;;2.60;;
4650;SDS011;2338;49.602;8.722;2022-08-01T01:41:06;3.20;;;2.70;;
4650;SDS011;2338;49.602;8.722;2022-08-01T01:43:53;3.57;;;3.03;;
4650;SDS011;2338;49.602;8.722;2022-08-01T01:46:41;3.73;;;2.70;;
4650;SDS011;2338;49.602;8.722;2022-08-01T01:49:28;3.40;;;2.70;;
4650;SDS011;2338;49.602;8.722;2022-08-01T01:52:16;3.73;;;2.43;;
4650;SDS011;2338;49.602;8.722;2022-08-01T01:55:04;8.50;;;4.00;;
4650;SDS011;2338;49.602;8.722;2022-08-01T01:57:53;4.83;;;3.23;;
4650;SDS011;2338;49.602;8.722;2022-08-01T02:00:40;6.50;;;3.03;;
4650;SDS011;2338;49.602;8.722;2022-08-01T02:03:30;5.63;;;2.90;;
4650;SDS011;2338;49.602;8.722;2022-08-01T02:06:20;3.40;;;2.20;;
4650;SDS011;2338;49.602;8.722;2022-08-01T02:09:08;7.70;;;3.10;;
4650;SDS011;2338;49.602;8.722;2022-08-01T02:11:54;4.00;;;2.80;;
4650;SDS011;2338;49.602;8.722;2022-08-01T02:14:42;5.33;;;2.67;;
4650;SDS011;2338;49.602;8.722;2022-08-01T02:17:29;5.40;;;3.10;;
4650;SDS011;2338;49.602;8.722;2022-08-01T02:20:17;7.03;;;3.20;;
4650;SDS011;2338;49.602;8.722;2022-08-01T02:23:05;4.80;;;3.50;;
4650;SDS011;2338;49.602;8.722;2022-08-01T02:25:53;8.50;;;3.37;;
4650;SDS011;2338;49.602;8.722;2022-08-01T02:28:43;5.67;;;3.40;;
4650;SDS011;2338;49.602;8.722;2022-08-01T02:31:33;5.13;;;3.00;;
4650;SDS011;2338;49.602;8.722;2022-08-01T02:34:22;4.13;;;2.73;;
4650;SDS011;2338;49.602;8.722;2022-08-01T02:37:12;3.30;;;2.37;;
4650;SDS011;2338;49.602;8.722;2022-08-01T02:39:59;3.77;;;2.50;;
4650;SDS011;2338;49.602;8.722;2022-08-01T02:42:47;7.13;;;3.27;;
4650;SDS011;2338;49.602;8.722;2022-08-01T02:45:34;3.50;;;2.80;;
4650;SDS011;2338;49.602;8.722;2022-08-01T02:48:24;7.60;;;2.80;;
4650;SDS011;2338;49.602;8.722;2022-08-01T02:51:11;4.10;;;3.03;;
4650;SDS011;2338;49.602;8.722;2022-08-01T02:53:59;3.50;;;2.70;;
4650;SDS011;2338;49.602;8.722;2022-08-01T02:56:48;4.33;;;3.33;;
4650;SDS011;2338;49.602;8.722;2022-08-01T02:59:37;3.90;;;2.77;;
4650;SDS011;2338;49.602;8.722;2022-08-01T03:02:24;6.17;;;3.20;;
4650;SDS011;2338;49.602;8.722;2022-08-01T03:05:10;5.73;;;3.03;;
4650;SDS011;2338;49.602;8.722;2022-08-01T03:07:58;5.20;;;3.30;;
4650;SDS011;2338;49.602;8.722;2022-08-01T03:10:46;3.50;;;2.47;;
4650;SDS011;2338;49.602;8.722;2022-08-01T03:13:33;3.43;;;2.43;;
4650;SDS011;2338;49.602;8.722;2022-08-01T03:16:19;4.93;;;2.87;;
4650;SDS011;2338;49.602;8.722;2022-08-01T03:19:07;4.53;;;2.60;;
4650;SDS011;2338;49.602;8.722;2022-08-01T03:21:56;3.53;;;2.60;;
4650;SDS011;2338;49.602;8.722;2022-08-01T03:24:44;9.33;;;2.93;;
4650;SDS011;2338;49.602;8.722;2022-08-01T03:27:34;8.57;;;2.90;;
4650;SDS011;2338;49.602;8.722;2022-08-01T03:30:22;4.77;;;2.67;;
4650;SDS011;2338;49.602;8.722;2022-08-01T03:33:09;5.17;;;2.57;;
4650;SDS011;2338;49.602;8.722;2022-08-01T03:35:56;10.33;;;2.70;;
4650;SDS011;2338;49.602;8.722;2022-08-01T03:38:45;2.90;;;2.33;;
4650;SDS011;2338;49.602;8.722;2022-08-01T03:41:32;3.80;;;2.80;;
4650;SDS011;2338;49.602;8.722;2022-08-01T03:44:24;2.90;;;2.57;;
4650;SDS011;2338;49.602;8.722;2022-08-01T03:47:13;3.10;;;2.00;;
4650;SDS011;2338;49.602;8.722;2022-08-01T03:50:02;5.10;;;2.57;;
4650;SDS011;2338;49.602;8.722;2022-08-01T03:52:50;4.60;;;2.97;;
4650;SDS011;2338;49.602;8.722;2022-08-01T03:55:36;3.40;;;2.90;;
4650;SDS011;2338;49.602;8.722;2022-08-01T03:58:24;3.53;;;2.50;;
4650;SDS011;2338;49.602;8.722;2022-08-01T04:01:12;3.30;;;2.57;;
4650;SDS011;2338;49.602;8.722;2022-08-01T04:03:58;3.57;;;2.67;;
4650;SDS011;2338;49.602;8.722;2022-08-01T04:06:45;5.50;;;2.67;;
4650;SDS011;2338;49.602;8.722;2022-08-01T04:09:34;7.10;;;3.57;;
4650;SDS011;2338;49.602;8.722;2022-08-01T04:12:20;3.13;;;2.13;;
4650;SDS011;2338;49.602;8.722;2022-08-01T04:15:06;5.00;;;2.57;;
4650;SDS011;2338;49.602;8.722;2022-08-01T04:17:54;7.20;;;2.17;;
4650;SDS011;2338;49.602;8.722;2022-08-01T04:20:39;4.27;;;3.07;;
4650;SDS011;2338;49.602;8.722;2022-08-01T04:23:25;3.90;;;2.40;;
4650;SDS011;2338;49.602;8.722;2022-08-01T04:26:16;11.13;;;2.80;;
4650;SDS011;2338;49.602;8.722;2022-08-01T04:29:03;4.10;;;3.00;;
4650;SDS011;2338;49.602;8.722;2022-08-01T04:31:51;6.90;;;2.90;;
4650;SDS011;2338;49.602;8.722;2022-08-01T04:34:40;8.87;;;4.00;;
4650;SDS011;2338;49.602;8.722;2022-08-01T04:37:29;5.47;;;3.73;;
4650;SDS011;2338;49.602;8.722;2022-08-01T04:40:16;4.70;;;2.20;;
4650;SDS011;2338;49.602;8.722;2022-08-01T04:43:05;3.10;;;2.20;;
4650;SDS011;2338;49.602;8.722;2022-08-01T04:45:52;3.70;;;2.03;;
4650;SDS011;2338;49.602;8.722;2022-08-01T04:48:39;3.90;;;2.10;;
4650;SDS011;2338;49.602;8.722;2022-08-01T04:51:26;4.03;;;2.40;;
4650;SDS011;2338;49.602;8.722;2022-08-01T04:54:12;4.00;;;2.10;;
4650;SDS011;2338;49.602;8.722;2022-08-01T04:56:58;3.57;;;2.07;;
4650;SDS011;2338;49.602;8.722;2022-08-01T04:59:44;4.30;;;2.43;;
4650;SDS011;2338;49.602;8.722;2022-08-01T05:02:30;3.80;;;2.70;;
4650;SDS011;2338;49.602;8.722;2022-08-01T05:05:16;4.03;;;2.70;;
4650;SDS011;2338;49.602;8.722;2022-08-01T05:08:03;5.90;;;2.53;;
4650;SDS011;2338;49.602;8.722;2022-08-01T05:10:49;3.67;;;2.47;;
4650;SDS011;2338;49.602;8.722;2022-08-01T05:13:36;2.83;;;1.93;;
4650;SDS011;2338;49.602;8.722;2022-08-01T05:16:22;4.37;;;2.23;;
4650;SDS011;2338;49.602;8.722;2022-08-01T05:19:07;3.90;;;2.40;;
4650;SDS011;2338;49.602;8.722;2022-08-01T05:21:53;6.00;;;2.60;;
4650;SDS011;2338;49.602;8.722;2022-08-01T05:24:40;3.00;;;2.27;;
4650;SDS011;2338;49.602;8.722;2022-08-01T05:27:26;5.40;;;2.97;;
4650;SDS011;2338;49.602;8.722;2022-08-01T05:30:12;4.10;;;2.70;;
4650;SDS011;2338;49.602;8.722;2022-08-01T05:32:57;6.60;;;3.10;;
4650;SDS011;2338;49.602;8.722;2022-08-01T05:35:43;3.60;;;2.87;;
4650;SDS011;2338;49.602;8.722;2022-08-01T05:38:28;3.10;;;2.50;;
4650;SDS011;2338;49.602;8.722;2022-08-01T05:41:15;6.50;;;2.73;;
4650;SDS011;2338;49.602;8.722;2022-08-01T05:44:01;5.33;;;2.53;;
4650;SDS011;2338;49.602;8.722;2022-08-01T05:46:47;2.90;;;2.13;;
4650;SDS011;2338;49.602;8.722;2022-08-01T05:49:33;4.40;;;2.50;;
4650;SDS011;2338;49.602;8.722;2022-08-01T05:52:18;3.00;;;2.70;;
4650;SDS011;2338;49.602;8.722;2022-08-01T05:55:04;6.23;;;2.90;;
4650;SDS011;2338;49.602;8.722;2022-08-01T05:57:52;4.93;;;2.40;;
4650;SDS011;2338;49.602;8.722;2022-08-01T06:00:38;4.20;;;2.07;;
4650;SDS011;2338;49.602;8.722;2022-08-01T06:03:24;5.70;;;2.73;;
4650;SDS011;2338;49.602;8.722;2022-08-01T06:06:10;3.77;;;2.50;;
4650;SDS011;2338;49.602;8.722;2022-08-01T06:08:57;3.93;;;2.63;;
4650;SDS011;2338;49.602;8.722;2022-08-01T06:11:43;4.03;;;2.80;;
4650;SDS011;2338;49.602;8.722;2022-08-01T06:14:30;3.90;;;2.57;;
4650;SDS011;2338;49.602;8.722;2022-08-01T06:17:15;4.60;;;2.20;;
4650;SDS011;2338;49.602;8.722;2022-08-01T06:20:01;5.97;;;2.33;;
4650;SDS011;2338;49.602;8.722;2022-08-01T06:22:47;3.60;;;2.27;;
4650;SDS011;2338;49.602;8.722;2022-08-01T06:25:32;3.80;;;1.90;;
4650;SDS011;2338;49.602;8.722;2022-08-01T06:28:18;4.90;;;1.60;;
4650;SDS011;2338;49.602;8.722;2022-08-01T06:31:05;3.13;;;1.40;;
4650;SDS011;2338;49.602;8.722;2022-08-01T06:33:51;4.70;;;1.90;;
4650;SDS011;2338;49.602;8.722;2022-08-01T06:36:36;3.53;;;1.90;;
4650;SDS011;2338;49.602;8.722;2022-08-01T06:39:22;2.93;;;1.70;;
4650;SDS011;2338;49.602;8.722;2022-08-01T06:42:08;2.40;;;1.60;;
4650;SDS011;2338;49.602;8.722;2022-08-01T06:44:54;7.47;;;1.50;;
4650;SDS011;2338;49.602;8.722;2022-08-01T06:47:41;4.40;;;1.70;;
4650;SDS011;2338;49.602;8.722;2022-08-01T06:50:27;6.63;;;1.90;;
4650;SDS011;2338;49.602;8.722;2022-08-01T06:53:13;2.43;;;1.30;;
4650;SDS011;2338;49.602;8.722;2022-08-01T06:55:58;3.43;;;1.60;;
4650;SDS011;2338;49.602;8.722;2022-08-01T06:58:44;3.50;;;1.70;;
4650;SDS011;2338;49.602;8.722;2022-08-01T07:01:29;2.43;;;1.60;;
4650;SDS011;2338;49.602;8.722;2022-08-01T07:04:16;5.30;;;1.67;;
4650;SDS011;2338;49.602;8.722;2022-08-01T07:07:02;4.40;;;1.90;;
4650;SDS011;2338;49.602;8.722;2022-08-01T07:09:48;3.90;;;1.70;;
4650;SDS011;2338;49.602;8.722;2022-08-01T07:12:33;2.80;;;1.80;;
4650;SDS011;2338;49.602;8.722;2022-08-01T07:15:20;2.70;;;1.67;;
4650;SDS011;2338;49.602;8.722;2022-08-01T07:18:10;3.10;;;1.63;;
4650;SDS011;2338;49.602;8.722;2022-08-01T07:20:57;10.20;;;2.00;;
4650;SDS011;2338;49.602;8.722;2022-08-01T07:23:43;4.80;;;1.80;;
4650;SDS011;2338;49.602;8.722;2022-08-01T07:26:28;5.13;;;1.57;;
4650;SDS011;2338;49.602;8.722;2022-08-01T07:29:14;7.70;;;1.70;;
4650;SDS011;2338;49.602;8.722;2022-08-01T07:32:00;3.90;;;1.33;;
4650;SDS011;2338;49.602;8.722;2022-08-01T07:34:46;3.00;;;2.20;;
4650;SDS011;2338;49.602;8.722;2022-08-01T07:37:33;3.27;;;1.57;;
4650;SDS011;2338;49.602;8.722;2022-08-01T07:40:19;3.17;;;1.67;;
4650;SDS011;2338;49.602;8.722;2022-08-01T07:43:05;3.33;;;2.00;;
4650;SDS011;2338;49.602;8.722;2022-08-01T07:45:51;4.47;;;1.63;;
4650;SDS011;2338;49.602;8.722;2022-08-01T07:48:36;5.03;;;1.77;;
4650;SDS011;2338;49.602;8.722;2022-08-01T07:51:22;2.97;;;1.90;;
4650;SDS011;2338;49.602;8.722;2022-08-01T07:54:09;6.40;;;2.10;;
4650;SDS011;2338;49.602;8.722;2022-08-01T07:56:55;3.73;;;2.17;;
4650;SDS011;2338;49.602;8.722;2022-08-01T07:59:41;3.40;;;2.50;;
4650;SDS011;2338;49.602;8.722;2022-08-01T08:02:26;3.87;;;1.90;;
4650;SDS011;2338;49.602;8.722;2022-08-01T08:05:12;6.47;;;2.00;;
4650;SDS011;2338;49.602;8.722;2022-08-01T08:07:58;4.13;;;2.30;;
4650;SDS011;2338;49.602;8.722;2022-08-01T08:10:45;2.80;;;1.70;;
4650;SDS011;2338;49.602;8.722;2022-08-01T08:13:30;3.27;;;1.87;;
4650;SDS011;2338;49.602;8.722;2022-08-01T08:16:16;2.67;;;1.37;;
4650;SDS011;2338;49.602;8.722;2022-08-01T08:19:01;2.90;;;1.60;;
4650;SDS011;2338;49.602;8.722;2022-08-01T08:21:47;5.70;;;2.07;;
4650;SDS011;2338;49.602;8.722;2022-08-01T08:24:33;2.60;;;1.70;;
4650;SDS011;2338;49.602;8.722;2022-08-01T08:27:19;4.30;;;1.70;;
4650;SDS011;2338;49.602;8.722;2022-08-01T08:30:06;2.73;;;1.50;;
4650;SDS011;2338;49.602;8.722;2022-08-01T08:32:52;3.40;;;1.60;;
4650;SDS011;2338;49.602;8.722;2022-08-01T08:35:38;2.87;;;1.50;;
4650;SDS011;2338;49.602;8.722;2022-08-01T08:38:25;4.13;;;1.80;;
4650;SDS011;2338;49.602;8.722;2022-08-01T08:41:10;3.07;;;1.80;;
4650;SDS011;2338;49.602;8.722;2022-08-01T08:43:58;5.10;;;2.00;;
4650;SDS011;2338;49.602;8.722;2022-08-01T08:46:45;3.37;;;2.20;;
4650;SDS011;2338;49.602;8.722;2022-08-01T08:49:32;6.23;;;2.43;;
4650;SDS011;2338;49.602;8.722;2022-08-01T08:52:18;2.77;;;1.80;;
4650;SDS011;2338;49.602;8.722;2022-08-01T08:55:05;2.20;;;1.40;;
4650;SDS011;2338;49.602;8.722;2022-08-01T08:57:52;4.00;;;1.40;;
4650;SDS011;2338;49.602;8.722;2022-08-01T09:00:40;3.77;;;1.83;;
4650;SDS011;2338;49.602;8.722;2022-08-01T09:03:26;2.57;;;1.70;;
4650;SDS011;2338;49.602;8.722;2022-08-01T09:06:11;6.67;;;1.47;;
4650;SDS011;2338;49.602;8.722;2022-08-01T09:08:58;3.33;;;1.73;;
4650;SDS011;2338;49.602;8.722;2022-08-01T09:11:43;4.60;;;2.13;;
4650;SDS011;2338;49.602;8.722;2022-08-01T09:14:29;3.67;;;1.80;;
4650;SDS011;2338;49.602;8.722;2022-08-01T09:17:16;4.23;;;1.73;;
4650;SDS011;2338;49.602;8.722;2022-08-01T09:20:02;3.73;;;1.50;;
4650;SDS011;2338;49.602;8.722;2022-08-01T09:22:48;2.77;;;1.70;;
4650;SDS011;2338;49.602;8.722;2022-08-01T09:31:05;2.30;;;1.63;;
4650;SDS011;2338;49.602;8.722;2022-08-01T09:33:53;2.67;;;1.60;;
4650;SDS011;2338;49.602;8.722;2022-08-01T09:36:45;5.30;;;1.70;;
4650;SDS011;2338;49.602;8.722;2022-08-01T09:39:35;3.00;;;1.70;;
4650;SDS011;2338;49.602;8.722;2022-08-01T09:42:24;2.90;;;1.70;;
4650;SDS011;2338;49.602;8.722;2022-08-01T09:48:16;3.10;;;1.77;;
4650;SDS011;2338;49.602;8.722;2022-08-01T09:51:03;2.30;;;1.10;;
4650;SDS011;2338;49.602;8.722;2022-08-01T09:53:49;6.50;;;1.70;;
4650;SDS011;2338;49.602;8.722;2022-08-01T09:56:36;3.40;;;1.60;;
4650;SDS011;2338;49.602;8.722;2022-08-01T09:59:23;1.80;;;1.03;;
4650;SDS011;2338;49.602;8.722;2022-08-01T10:02:26;3.33;;;1.27;;
4650;SDS011;2338;49.602;8.722;2022-08-01T10:05:14;2.70;;;1.70;;
4650;SDS011;2338;49.602;8.722;2022-08-01T10:08:02;2.50;;;1.37;;
4650;SDS011;2338;49.602;8.722;2022-08-01T10:13:51;2.20;;;1.27;;
4650;SDS011;2338;49.602;8.722;2022-08-01T10:16:37;2.40;;;1.40;;
4650;SDS011;2338;49.602;8.722;2022-08-01T10:19:24;2.70;;;1.20;;
4650;SDS011;2338;49.602;8.722;2022-08-01T10:22:12;3.30;;;1.10;;
4650;SDS011;2338;49.602;8.722;2022-08-01T10:25:02;2.73;;;1.30;;
4650;SDS011;2338;49.602;8.722;2022-08-01T10:27:50;2.30;;;1.23;;
4650;SDS011;2338;49.602;8.722;2022-08-01T10:30:38;2.27;;;1.37;;
4650;SDS011;2338;49.602;8.722;2022-08-01T10:33:27;2.97;;;1.60;;
4650;SDS011;2338;49.602;8.722;2022-08-01T10:36:14;2.47;;;1.67;;
4650;SDS011;2338;49.602;8.722;2022-08-01T10:39:04;2.97;;;1.43;;
4650;SDS011;2338;49.602;8.722;2022-08-01T10:41:52;3.00;;;1.97;;
4650;SDS011;2338;49.602;8.722;2022-08-01T10:44:37;2.30;;;1.43;;
4650;SDS011;2338;49.602;8.722;2022-08-01T10:47:25;3.93;;;1.60;;
4650;SDS011;2338;49.602;8.722;2022-08-01T10:50:21;4.30;;;1.40;;
4650;SDS011;2338;49.602;8.722;2022-08-01T10:53:14;2.60;;;1.57;;
4650;SDS011;2338;49.602;8.722;2022-08-01T10:56:02;2.80;;;1.43;;
4650;SDS011;2338;49.602;8.722;2022-08-01T10:58:51;3.23;;;1.93;;
4650;SDS011;2338;49.602;8.722;2022-08-01T11:01:49;3.57;;;1.60;;
4650;SDS011;2338;49.602;8.722;2022-08-01T11:04:44;3.60;;;1.67;;
4650;SDS011;2338;49.602;8.722;2022-08-01T11:07:42;4.73;;;1.63;;
4650;SDS011;2338;49.602;8.722;2022-08-01T11:10:35;2.50;;;1.50;;
4650;SDS011;2338;49.602;8.722;2022-08-01T11:16:43;2.40;;;1.33;;
4650;SDS011;2338;49.602;8.722;2022-08-01T11:19:33;2.20;;;1.40;;
4650;SDS011;2338;49.602;8.722;2022-08-01T11:26:16;2.20;;;1.40;;
4650;SDS011;2338;49.602;8.722;2022-08-01T11:29:16;2.50;;;1.50;;
4650;SDS011;2338;49.602;8.722;2022-08-01T11:35:11;2.90;;;1.60;;
4650;SDS011;2338;49.602;8.722;2022-08-01T11:37:57;3.03;;;1.40;;
4650;SDS011;2338;49.602;8.722;2022-08-01T11:41:11;2.70;;;1.50;;
4650;SDS011;2338;49.602;8.722;2022-08-01T11:43:58;2.83;;;1.57;;
4650;SDS011;2338;49.602;8.722;2022-08-01T11:46:49;2.87;;;1.47;;
4650;SDS011;2338;49.602;8.722;2022-08-01T11:49:45;4.53;;;1.60;;
4650;SDS011;2338;49.602;8.722;2022-08-01T11:52:34;5.47;;;1.67;;
4650;SDS011;2338;49.602;8.722;2022-08-01T11:55:22;2.67;;;1.83;;
4650;SDS011;2338;49.602;8.722;2022-08-01T11:58:08;3.67;;;1.50;;
4650;SDS011;2338;49.602;8.722;2022-08-01T12:00:54;5.90;;;1.47;;
4650;SDS011;2338;49.602;8.722;2022-08-01T12:03:40;2.80;;;1.37;;
4650;SDS011;2338;49.602;8.722;2022-08-01T12:06:28;2.47;;;1.30;;
4650;SDS011;2338;49.602;8.722;2022-08-01T12:09:14;3.57;;;1.13;;
4650;SDS011;2338;49.602;8.722;2022-08-01T12:12:04;2.80;;;1.70;;
4650;SDS011;2338;49.602;8.722;2022-08-01T12:14:54;2.87;;;1.23;;
4650;SDS011;2338;49.602;8.722;2022-08-01T12:17:41;2.10;;;1.30;;
4650;SDS011;2338;49.602;8.722;2022-08-01T12:20:29;2.40;;;1.37;;
4650;SDS011;2338;49.602;8.722;2022-08-01T12:23:17;3.03;;;1.53;;
4650;SDS011;2338;49.602;8.722;2022-08-01T12:26:03;3.80;;;1.37;;
4650;SDS011;2338;49.602;8.722;2022-08-01T12:28:49;4.10;;;1.50;;
4650;SDS011;2338;49.602;8.722;2022-08-01T12:31:36;2.93;;;1.60;;
4650;SDS011;2338;49.602;8.722;2022-08-01T12:34:24;2.17;;;1.33;;
4650;SDS011;2338;49.602;8.722;2022-08-01T12:37:11;3.47;;;1.67;;
4650;SDS011;2338;49.602;8.722;2022-08-01T12:39:58;3.73;;;1.37;;
4650;SDS011;2338;49.602;8.722;2022-08-01T12:42:44;2.87;;;1.30;;
4650;SDS011;2338;49.602;8.722;2022-08-01T12:45:33;2.93;;;1.40;;
4650;SDS011;2338;49.602;8.722;2022-08-01T12:48:19;2.43;;;1.60;;
4650;SDS011;2338;49.602;8.722;2022-08-01T12:51:05;3.00;;;1.67;;
4650;SDS011;2338;49.602;8.722;2022-08-01T12:53:53;2.30;;;1.40;;
4650;SDS011;2338;49.602;8.722;2022-08-01T12:56:40;2.60;;;1.60;;
4650;SDS011;2338;49.602;8.722;2022-08-01T12:59:27;3.43;;;1.70;;
4650;SDS011;2338;49.602;8.722;2022-08-01T13:02:13;3.63;;;1.57;;
4650;SDS011;2338;49.602;8.722;2022-08-01T13:04:59;2.33;;;1.10;;
4650;SDS011;2338;49.602;8.722;2022-08-01T13:07:45;2.37;;;1.33;;
4650;SDS011;2338;49.602;8.722;2022-08-01T13:10:33;3.07;;;1.30;;
4650;SDS011;2338;49.602;8.722;2022-08-01T13:13:20;4.93;;;2.10;;
4650;SDS011;2338;49.602;8.722;2022-08-01T13:16:06;2.40;;;1.40;;
4650;SDS011;2338;49.602;8.722;2022-08-01T13:18:53;2.50;;;1.40;;
4650;SDS011;2338;49.602;8.722;2022-08-01T13:21:40;6.83;;;1.40;;
4650;SDS011;2338;49.602;8.722;2022-08-01T13:24:39;3.23;;;1.60;;
4650;SDS011;2338;49.602;8.722;2022-08-01T13:27:25;2.93;;;1.47;;
4650;SDS011;2338;49.602;8.722;2022-08-01T13:30:15;2.67;;;1.33;;
4650;SDS011;2338;49.602;8.722;2022-08-01T13:33:03;2.47;;;1.20;;
4650;SDS011;2338;49.602;8.722;2022-08-01T13:35:49;2.70;;;1.30;;
4650;SDS011;2338;49.602;8.722;2022-08-01T13:38:36;4.27;;;1.50;;
4650;SDS011;2338;49.602;8.722;2022-08-01T13:41:40;2.00;;;1.10;;
4650;SDS011;2338;49.602;8.722;2022-08-01T13:44:26;2.90;;;1.17;;
4650;SDS011;2338;49.602;8.722;2022-08-01T13:47:13;4.00;;;1.30;;
4650;SDS011;2338;49.602;8.722;2022-08-01T13:49:59;2.63;;;1.33;;
4650;SDS011;2338;49.602;8.722;2022-08-01T13:52:46;3.10;;;1.23;;
4650;SDS011;2338;49.602;8.722;2022-08-01T13:55:31;3.53;;;1.40;;
4650;SDS011;2338;49.602;8.722;2022-08-01T13:58:17;2.70;;;1.47;;
4650;SDS011;2338;49.602;8.722;2022-08-01T14:01:03;2.63;;;1.33;;
4650;SDS011;2338;49.602;8.722;2022-08-01T14:03:50;2.47;;;1.10;;
4650;SDS011;2338;49.602;8.722;2022-08-01T14:06:36;2.30;;;1.30;;
4650;SDS011;2338;49.602;8.722;2022-08-01T14:09:21;2.10;;;1.07;;
4650;SDS011;2338;49.602;8.722;2022-08-01T14:12:07;2.20;;;1.30;;
4650;SDS011;2338;49.602;8.722;2022-08-01T14:14:53;2.87;;;1.37;;
4650;SDS011;2338;49.602;8.722;2022-08-01T14:17:38;4.10;;;1.30;;
4650;SDS011;2338;49.602;8.722;2022-08-01T14:20:26;2.50;;;1.40;;
4650;SDS011;2338;49.602;8.722;2022-08-01T14:23:11;2.43;;;1.23;;
4650;SDS011;2338;49.602;8.722;2022-08-01T14:25:57;3.60;;;1.40;;
4650;SDS011;2338;49.602;8.722;2022-08-01T14:28:43;2.77;;;1.40;;
4650;SDS011;2338;49.602;8.722;2022-08-01T14:31:28;2.67;;;1.03;;
4650;SDS011;2338;49.602;8.722;2022-08-01T14:34:14;4.23;;;1.27;;
4650;SDS011;2338;49.602;8.722;2022-08-01T14:37:01;2.50;;;1.13;;
4650;SDS011;2338;49.602;8.722;2022-08-01T14:39:47;2.30;;;1.10;;
4650;SDS011;2338;49.602;8.722;2022-08-01T14:42:32;6.60;;;1.40;;
4650;SDS011;2338;49.602;8.722;2022-08-01T14:45:18;13.80;;;1.40;;
4650;SDS011;2338;49.602;8.722;2022-08-01T14:48:04;5.93;;;1.37;;
4650;SDS011;2338;49.602;8.722;2022-08-01T14:50:50;2.00;;;1.03;;
4650;SDS011;2338;49.602;8.722;2022-08-01T14:53:37;2.40;;;1.20;;
4650;SDS011;2338;49.602;8.722;2022-08-01T14:56:23;6.23;;;2.10;;
4650;SDS011;2338;49.602;8.722;2022-08-01T14:59:09;3.87;;;1.30;;
4650;SDS011;2338;49.602;8.722;2022-08-01T15:01:54;2.87;;;1.20;;
4650;SDS011;2338;49.602;8.722;2022-08-01T15:04:40;4.00;;;1.23;;
4650;SDS011;2338;49.602;8.722;2022-08-01T15:07:25;3.73;;;1.13;;
4650;SDS011;2338;49.602;8.722;2022-08-01T15:10:12;3.57;;;1.40;;
4650;SDS011;2338;49.602;8.722;2022-08-01T15:12:59;3.30;;;1.40;;
4650;SDS011;2338;49.602;8.722;2022-08-01T15:15:45;3.13;;;1.20;;
4650;SDS011;2338;49.602;8.722;2022-08-01T15:18:31;2.10;;;1.00;;
4650;SDS011;2338;49.602;8.722;2022-08-01T15:21:16;3.07;;;1.30;;
4650;SDS011;2338;49.602;8.722;2022-08-01T15:24:02;2.57;;;1.10;;
4650;SDS011;2338;49.602;8.722;2022-08-01T15:26:49;14.97;;;1.40;;
4650;SDS011;2338;49.602;8.722;2022-08-01T15:29:35;2.20;;;1.30;;
4650;SDS011;2338;49.602;8.722;2022-08-01T15:32:21;3.27;;;1.40;;
4650;SDS011;2338;49.602;8.722;2022-08-01T15:35:07;2.90;;;1.40;;
4650;SDS011;2338;49.602;8.722;2022-08-01T15:37:54;2.93;;;1.20;;
4650;SDS011;2338;49.602;8.722;2022-08-01T15:40:40;2.03;;;0.97;;
4650;SDS011;2338;49.602;8.722;2022-08-01T15:43:27;5.33;;;1.43;;
4650;SDS011;2338;49.602;8.722;2022-08-01T15:46:13;2.00;;;0.90;;
4650;SDS011;2338;49.602;8.722;2022-08-01T15:48:59;8.90;;;1.47;;
4650;SDS011;2338;49.602;8.722;2022-08-01T15:51:47;4.47;;;1.00;;
4650;SDS011;2338;49.602;8.722;2022-08-01T15:54:33;2.33;;;0.80;;
4650;SDS011;2338;49.602;8.722;2022-08-01T15:57:20;2.73;;;1.07;;
4650;SDS011;2338;49.602;8.722;2022-08-01T16:00:08;2.73;;;1.00;;
4650;SDS011;2338;49.602;8.722;2022-08-01T16:02:55;3.50;;;1.17;;
4650;SDS011;2338;49.602;8.722;2022-08-01T16:05:40;2.07;;;1.00;;
4650;SDS011;2338;49.602;8.722;2022-08-01T16:08:27;2.03;;;0.87;;
4650;SDS011;2338;49.602;8.722;2022-08-01T16:11:12;2.50;;;1.00;;
4650;SDS011;2338;49.602;8.722;2022-08-01T16:13:58;4.03;;;1.00;;
4650;SDS011;2338;49.602;8.722;2022-08-01T16:16:45;4.23;;;1.10;;
4650;SDS011;2338;49.602;8.722;2022-08-01T16:19:30;2.93;;;1.10;;
4650;SDS011;2338;49.602;8.722;2022-08-01T16:22:16;1.90;;;0.97;;
4650;SDS011;2338;49.602;8.722;2022-08-01T16:25:02;3.90;;;1.10;;
4650;SDS011;2338;49.602;8.722;2022-08-01T16:27:48;3.77;;;1.20;;
4650;SDS011;2338;49.602;8.722;2022-08-01T16:30:33;2.60;;;1.23;;
4650;SDS011;2338;49.602;8.722;2022-08-01T16:33:21;2.20;;;1.17;;
4650;SDS011;2338;49.602;8.722;2022-08-01T16:36:06;2.47;;;1.30;;
4650;SDS011;2338;49.602;8.722;2022-08-01T16:38:52;6.93;;;1.17;;
4650;SDS011;2338;49.602;8.722;2022-08-01T16:41:37;5.20;;;1.23;;
4650;SDS011;2338;49.602;8.722;2022-08-01T16:44:23;3.83;;;1.17;;
4650;SDS011;2338;49.602;8.722;2022-08-01T16:47:09;6.63;;;0.90;;
4650;SDS011;2338;49.602;8.722;2022-08-01T16:49:56;2.10;;;1.20;;
4650;SDS011;2338;49.602;8.722;2022-08-01T16:52:42;6.47;;;1.10;;
4650;SDS011;2338;49.602;8.722;2022-08-01T16:55:28;2.67;;;1.00;;
4650;SDS011;2338;49.602;8.722;2022-08-01T16:58:16;15.67;;;1.43;;
4650;SDS011;2338;49.602;8.722;2022-08-01T17:01:02;3.40;;;1.23;;
4650;SDS011;2338;49.602;8.722;2022-08-01T17:03:48;4.50;;;1.37;;
4650;SDS011;2338;49.602;8.722;2022-08-01T17:06:35;3.67;;;1.60;;
4650;SDS011;2338;49.602;8.722;2022-08-01T17:09:21;4.93;;;1.87;;
4650;SDS011;2338;49.602;8.722;2022-08-01T17:12:07;2.63;;;1.20;;
4650;SDS011;2338;49.602;8.722;2022-08-01T17:14:53;2.80;;;1.40;;
4650;SDS011;2338;49.602;8.722;2022-08-01T17:17:39;5.13;;;1.20;;
4650;SDS011;2338;49.602;8.722;2022-08-01T17:20:24;4.50;;;1.40;;
4650;SDS011;2338;49.602;8.722;2022-08-01T17:23:12;3.40;;;1.20;;
4650;SDS011;2338;49.602;8.722;2022-08-01T17:25:58;2.30;;;1.20;;
4650;SDS011;2338;49.602;8.722;2022-08-01T17:28:44;7.30;;;1.77;;
4650;SDS011;2338;49.602;8.722;2022-08-01T17:31:30;5.63;;;1.20;;
4650;SDS011;2338;49.602;8.722;2022-08-01T17:34:15;4.00;;;1.57;;
4650;SDS011;2338;49.602;8.722;2022-08-01T17:37:01;2.03;;;1.23;;
4650;SDS011;2338;49.602;8.722;2022-08-01T17:39:48;2.20;;;1.20;;